Time;durP1;ratioP1;P1;durP2;ratioP2;P2;SDS_P1;SDS_P2;PMS_P1;PMS_P2;Temp;Humidity;BMP_temperature;BMP_pressure;BME280_temperature;BME280_humidity;BME280_pressure;Samples;Min_cycle;Max_cycle;Signal;HPM_P1;HPM_P2
2023/10/16 00:00:29;;;;;;;7.47;2.80;;;;;;;;;;5021334;28;20424;-58
2023/10/16 00:02:59;;;;;;;7.55;2.63;;;;;;;;;;5015120;28;20537;-58
2023/10/16 00:05:25;;;;;;;8.60;2.83;;;;;;;;;;5014341;28;20382;-58
2023/10/16 00:07:50;;;;;;;6.97;2.30;;;;;;;;;;5015566;28;20435;-58
2023/10/16 00:10:16;;;;;;;6.03;2.40;;;;;;;;;;5020799;28;20419;-58
2023/10/16 00:12:42;;;;;;;5.93;2.33;;;;;;;;;;5014152;28;20408;-58
2023/10/16 00:15:08;;;;;;;6.88;2.50;;;;;;;;;;5016224;28;20805;-58
2023/10/16 00:17:33;;;;;;;4.77;2.10;;;;;;;;;;5020770;28;20401;-58
2023/10/16 00:19:58;;;;;;;5.70;2.10;;;;;;;;;;5022301;28;20404;-58
2023/10/16 00:22:25;;;;;;;6.23;2.30;;;;;;;;;;5015045;28;20393;-58
2023/10/16 00:24:51;;;;;;;8.65;2.60;;;;;;;;;;5013605;28;20407;-58
2023/10/16 00:27:16;;;;;;;5.17;1.83;;;;;;;;;;5021417;28;20749;-58
2023/10/16 00:29:42;;;;;;;6.17;2.37;;;;;;;;;;5019770;28;20410;-59
2023/10/16 00:32:07;;;;;;;4.63;2.20;;;;;;;;;;5015918;28;20396;-58
2023/10/16 00:34:33;;;;;;;5.93;2.70;;;;;;;;;;5021904;28;20496;-58
2023/10/16 00:37:01;;;;;;;4.55;2.42;;;;;;;;;;5013297;28;20879;-58
2023/10/16 00:39:28;;;;;;;6.60;2.90;;;;;;;;;;5014355;28;20965;-58
2023/10/16 00:41:53;;;;;;;7.55;2.60;;;;;;;;;;5014097;28;20407;-58
2023/10/16 00:44:21;;;;;;;6.57;2.90;;;;;;;;;;5020277;28;20417;-58
2023/10/16 00:46:48;;;;;;;5.93;2.90;;;;;;;;;;5014713;28;20404;-58
2023/10/16 00:49:14;;;;;;;6.55;2.42;;;;;;;;;;5014233;28;20429;-58
2023/10/16 00:51:39;;;;;;;5.50;2.57;;;;;;;;;;5012725;28;20413;-58
2023/10/16 00:54:05;;;;;;;6.37;2.50;;;;;;;;;;5021225;28;20427;-58
2023/10/16 00:56:31;;;;;;;6.85;2.80;;;;;;;;;;5014906;28;20443;-58
2023/10/16 00:58:56;;;;;;;6.33;2.77;;;;;;;;;;5013069;28;20795;-58
2023/10/16 01:01:23;;;;;;;7.37;3.07;;;;;;;;;;5021237;28;20839;-58
2023/10/16 01:03:49;;;;;;;6.45;3.15;;;;;;;;;;5014826;28;20439;-58
2023/10/16 01:06:16;;;;;;;6.47;3.38;;;;;;;;;;5013168;28;20451;-58
2023/10/16 01:08:49;;;;;;;7.22;3.20;;;;;;;;;;5021705;28;20438;-58
2023/10/16 01:11:15;;;;;;;7.30;3.13;;;;;;;;;;5013213;28;20503;-58
2023/10/16 01:13:41;;;;;;;5.63;2.97;;;;;;;;;;5014132;28;20504;-58
2023/10/16 01:16:07;;;;;;;7.25;3.70;;;;;;;;;;5013052;28;20405;-58
2023/10/16 01:18:34;;;;;;;7.03;3.42;;;;;;;;;;5013169;28;20412;-58
2023/10/16 01:21:04;;;;;;;7.05;3.60;;;;;;;;;;5013862;28;20406;-58
2023/10/16 01:23:30;;;;;;;7.57;3.65;;;;;;;;;;5013553;28;20397;-58
2023/10/16 01:25:55;;;;;;;8.77;3.93;;;;;;;;;;5021327;28;20408;-58
2023/10/16 01:28:21;;;;;;;6.50;3.40;;;;;;;;;;5012426;28;20906;-58
2023/10/16 01:30:47;;;;;;;6.22;3.58;;;;;;;;;;5013869;28;20409;-58
2023/10/16 01:33:13;;;;;;;7.30;3.70;;;;;;;;;;5012210;28;20420;-58
2023/10/16 01:35:39;;;;;;;7.07;3.22;;;;;;;;;;5021218;28;20973;-57
2023/10/16 01:38:18;;;;;;;8.70;3.77;;;;;;;;;;5014911;28;20454;-58
2023/10/16 01:40:47;;;;;;;8.80;4.10;;;;;;;;;;5019174;28;20954;-58
2023/10/16 01:43:13;;;;;;;7.63;3.60;;;;;;;;;;5012767;28;20419;-58
2023/10/16 01:45:49;;;;;;;8.13;3.57;;;;;;;;;;5018398;28;20431;-58
2023/10/16 01:48:14;;;;;;;7.95;3.80;;;;;;;;;;5015235;28;20432;-58
2023/10/16 01:50:40;;;;;;;6.73;3.40;;;;;;;;;;5013102;28;20414;-58
2023/10/16 01:53:05;;;;;;;6.53;3.65;;;;;;;;;;5021262;28;20399;-58
2023/10/16 01:55:31;;;;;;;7.40;3.77;;;;;;;;;;5013656;28;20434;-58
2023/10/16 01:57:59;;;;;;;10.37;4.33;;;;;;;;;;5012867;28;20916;-58
2023/10/16 02:00:26;;;;;;;6.75;3.70;;;;;;;;;;5020687;28;20397;-58
2023/10/16 02:02:52;;;;;;;7.97;4.18;;;;;;;;;;5016853;28;20751;-58
2023/10/16 02:05:18;;;;;;;7.23;4.10;;;;;;;;;;5017804;28;20398;-58
2023/10/16 02:07:43;;;;;;;5.97;3.30;;;;;;;;;;5020868;28;20419;-58
2023/10/16 02:10:12;;;;;;;7.37;3.67;;;;;;;;;;5015245;28;20416;-58
2023/10/16 02:12:38;;;;;;;7.35;3.45;;;;;;;;;;5017724;28;21576;-58
2023/10/16 02:15:06;;;;;;;6.97;3.70;;;;;;;;;;5023840;28;20489;-58
2023/10/16 02:17:31;;;;;;;5.68;2.97;;;;;;;;;;5017895;28;20403;-58
2023/10/16 02:19:57;;;;;;;9.07;3.83;;;;;;;;;;5018040;28;20733;-58
2023/10/16 02:22:23;;;;;;;6.07;3.08;;;;;;;;;;5015266;28;21178;-58
2023/10/16 02:24:49;;;;;;;7.90;3.63;;;;;;;;;;5024408;28;20501;-58
2023/10/16 02:27:18;;;;;;;6.88;3.80;;;;;;;;;;5016364;28;20903;-58
2023/10/16 02:29:45;;;;;;;7.00;4.00;;;;;;;;;;5016694;28;20415;-59
2023/10/16 02:32:12;;;;;;;7.30;3.50;;;;;;;;;;5015577;28;20514;-58
2023/10/16 02:34:37;;;;;;;8.10;3.53;;;;;;;;;;5024165;28;20407;-58
2023/10/16 02:37:06;;;;;;;7.90;3.63;;;;;;;;;;5016806;28;20418;-58
2023/10/16 02:39:38;;;;;;;6.40;3.13;;;;;;;;;;5023719;28;20415;-58
2023/10/16 02:42:06;;;;;;;7.00;3.35;;;;;;;;;;5023229;28;20421;-58
2023/10/16 02:44:32;;;;;;;6.45;3.10;;;;;;;;;;5020520;28;20758;-58
2023/10/16 02:46:58;;;;;;;7.40;3.20;;;;;;;;;;5019740;28;20428;-58
2023/10/16 02:49:23;;;;;;;5.77;3.07;;;;;;;;;;5015340;28;20404;-58
2023/10/16 02:51:48;;;;;;;7.53;2.73;;;;;;;;;;5023112;28;20407;-58
2023/10/16 02:54:13;;;;;;;8.20;3.07;;;;;;;;;;5017013;28;20424;-58
2023/10/16 02:56:42;;;;;;;5.77;2.67;;;;;;;;;;5015557;28;20419;-58
2023/10/16 02:59:08;;;;;;;6.68;2.85;;;;;;;;;;5022296;28;20395;-58
2023/10/16 03:01:34;;;;;;;6.10;3.00;;;;;;;;;;5016774;28;20811;-58
2023/10/16 03:03:59;;;;;;;6.70;2.70;;;;;;;;;;5018681;28;20403;-58
2023/10/16 03:06:26;;;;;;;8.30;2.80;;;;;;;;;;5014527;28;20408;-58
2023/10/16 03:08:52;;;;;;;7.37;3.43;;;;;;;;;;5015977;28;20440;-58
2023/10/16 03:11:17;;;;;;;6.33;3.03;;;;;;;;;;5016127;28;20962;-58
2023/10/16 03:13:43;;;;;;;8.23;3.37;;;;;;;;;;5014330;28;20911;-58
2023/10/16 03:16:15;;;;;;;7.90;3.53;;;;;;;;;;5023312;28;20403;-58
2023/10/16 03:18:48;;;;;;;10.35;3.10;;;;;;;;;;5016938;28;20412;-58
2023/10/16 03:23:43;;;;;;;7.20;2.93;;;;;;;;;;5015282;28;20399;-58
2023/10/16 03:26:09;;;;;;;4.97;2.72;;;;;;;;;;5020328;28;20403;-58
2023/10/16 03:28:35;;;;;;;7.33;2.70;;;;;;;;;;5018382;28;20419;-58
2023/10/16 03:31:02;;;;;;;5.63;2.43;;;;;;;;;;5022665;28;20423;-58
2023/10/16 03:33:27;;;;;;;5.95;2.30;;;;;;;;;;5013221;28;20500;-58
2023/10/16 03:35:53;;;;;;;5.55;2.20;;;;;;;;;;5017162;28;20987;-58
2023/10/16 03:38:24;;;;;;;5.97;2.60;;;;;;;;;;5022017;28;20407;-58
2023/10/16 03:40:51;;;;;;;7.75;2.72;;;;;;;;;;5014093;28;20419;-58
2023/10/16 03:43:16;;;;;;;6.73;2.30;;;;;;;;;;5014924;28;20496;-58
2023/10/16 03:45:42;;;;;;;6.10;2.13;;;;;;;;;;5008737;28;20495;-58
2023/10/16 03:48:10;;;;;;;5.20;2.07;;;;;;;;;;5002198;28;20425;-57
2023/10/16 03:50:38;;;;;;;5.95;2.13;;;;;;;;;;5002936;28;20397;-58
2023/10/16 03:53:03;;;;;;;6.78;2.40;;;;;;;;;;4999837;28;20484;-58
2023/10/16 03:55:31;;;;;;;6.13;2.38;;;;;;;;;;4994603;28;20764;-58
2023/10/16 03:57:56;;;;;;;4.97;1.88;;;;;;;;;;4994763;28;20906;-57
2023/10/16 04:00:43;;;;;;;5.33;1.83;;;;;;;;;;4996567;28;20458;-58
2023/10/16 04:03:09;;;;;;;5.32;2.10;;;;;;;;;;5004678;28;20408;-58
2023/10/16 04:05:45;;;;;;;5.33;1.90;;;;;;;;;;5003282;28;20432;-58
2023/10/16 04:08:10;;;;;;;4.57;2.00;;;;;;;;;;5001314;28;20476;-58
2023/10/16 04:10:36;;;;;;;6.60;1.83;;;;;;;;;;5004082;28;20604;-58
2023/10/16 04:13:02;;;;;;;4.65;1.75;;;;;;;;;;5008198;28;20401;-57
2023/10/16 04:18:05;;;;;;;6.50;2.10;;;;;;;;;;4994878;28;20744;-58
2023/10/16 04:20:43;;;;;;;4.33;2.00;;;;;;;;;;4994525;28;20431;-58
2023/10/16 04:23:21;;;;;;;7.07;2.30;;;;;;;;;;4996323;28;20399;-58
2023/10/16 04:26:28;;;;;;;7.55;2.45;;;;;;;;;;5002911;28;20544;-58
2023/10/16 04:28:39;;;;;;;7.22;2.38;;;;;;;;;;5002085;28;20397;-58
2023/10/16 04:31:31;;;;;;;5.82;2.58;;;;;;;;;;5002038;28;20738;-59
2023/10/16 04:34:02;;;;;;;5.63;2.45;;;;;;;;;;5007074;28;20408;-57
2023/10/16 04:41:16;;;;;;;6.97;2.42;;;;;;;;;;4996986;28;20531;-58
2023/10/16 04:44:49;;;;;;;7.75;2.65;;;;;;;;;;4994812;28;20543;-58
2023/10/16 04:47:17;;;;;;;7.05;2.50;;;;;;;;;;5001321;28;20760;-58
2023/10/16 04:49:59;;;;;;;8.60;3.00;;;;;;;;;;5002249;28;20413;-58
2023/10/16 04:52:37;;;;;;;7.27;2.80;;;;;;;;;;5002914;28;20412;-58
2023/10/16 04:55:02;;;;;;;6.85;2.75;;;;;;;;;;5004304;28;20977;-58
2023/10/16 04:57:47;;;;;;;6.43;2.40;;;;;;;;;;5001978;28;20409;-58
2023/10/16 05:00:27;;;;;;;5.85;2.58;;;;;;;;;;5001504;28;20404;-58
2023/10/16 05:03:04;;;;;;;7.07;2.95;;;;;;;;;;4994691;28;20439;-58
2023/10/16 05:05:45;;;;;;;6.43;3.00;;;;;;;;;;4995456;28;20401;-57
2023/10/16 05:13:54;;;;;;;6.35;2.20;;;;;;;;;;5014789;28;20458;-57
2023/10/16 05:19:04;;;;;;;6.03;2.20;;;;;;;;;;5002062;28;20410;-58
2023/10/16 05:22:02;;;;;;;6.18;2.40;;;;;;;;;;5001755;28;20775;-58
2023/10/16 06:16:21;;;;;;;5.83;2.17;;;;;;;;;;5017292;28;20400;-58
2023/10/16 06:18:47;;;;;;;6.13;2.40;;;;;;;;;;5020073;28;20428;-58
2023/10/16 06:21:19;;;;;;;4.80;1.85;;;;;;;;;;5021224;28;20404;-58
2023/10/16 06:23:48;;;;;;;5.03;1.92;;;;;;;;;;5020319;28;20404;-58
2023/10/16 06:26:14;;;;;;;6.17;2.20;;;;;;;;;;5016477;28;20938;-58
2023/10/16 06:28:47;;;;;;;6.10;2.40;;;;;;;;;;5020979;28;20490;-58
2023/10/16 06:31:13;;;;;;;5.15;2.08;;;;;;;;;;5021583;28;20419;-58
2023/10/16 06:33:41;;;;;;;5.17;1.93;;;;;;;;;;5020629;28;20403;-58
2023/10/16 06:36:06;;;;;;;5.13;2.00;;;;;;;;;;5019458;28;20410;-57
2023/10/16 06:38:31;;;;;;;4.23;2.00;;;;;;;;;;5016131;28;20411;-58
2023/10/16 06:40:57;;;;;;;6.10;2.27;;;;;;;;;;5015892;28;20423;-58
2023/10/16 06:43:25;;;;;;;5.17;1.90;;;;;;;;;;5015408;28;20411;-58
2023/10/16 06:45:58;;;;;;;6.40;2.30;;;;;;;;;;5024000;28;20513;-58
2023/10/16 06:48:27;;;;;;;5.05;2.20;;;;;;;;;;5023300;28;20423;-58
2023/10/16 06:50:53;;;;;;;7.43;2.50;;;;;;;;;;5016495;28;20531;-58
2023/10/16 06:53:19;;;;;;;5.25;2.40;;;;;;;;;;5020270;28;20486;-58
2023/10/16 06:55:45;;;;;;;7.13;2.30;;;;;;;;;;5019885;28;20423;-58
2023/10/16 06:58:11;;;;;;;5.53;2.20;;;;;;;;;;5019028;28;20408;-57
2023/10/16 07:00:38;;;;;;;5.40;2.20;;;;;;;;;;5016140;28;20425;-58
2023/10/16 07:03:09;;;;;;;5.70;2.20;;;;;;;;;;5013846;28;20410;-58
2023/10/16 07:05:43;;;;;;;7.55;2.40;;;;;;;;;;5022820;28;20392;-59
2023/10/16 07:08:09;;;;;;;4.93;2.10;;;;;;;;;;5014282;28;20447;-59
2023/10/16 07:10:36;;;;;;;6.55;2.25;;;;;;;;;;5015730;28;20786;-58
2023/10/16 07:13:02;;;;;;;5.82;2.40;;;;;;;;;;5020029;28;20487;-58
2023/10/16 07:15:29;;;;;;;5.43;1.90;;;;;;;;;;5022681;28;20890;-59
2023/10/16 07:17:55;;;;;;;5.63;2.13;;;;;;;;;;5015502;28;20405;-58
2023/10/16 07:20:28;;;;;;;17.27;11.13;;;;;;;;;;5019064;28;20484;-58
2023/10/16 07:22:56;;;;;;;8.00;3.10;;;;;;;;;;5029607;28;20407;-58
2023/10/16 07:25:23;;;;;;;6.07;2.30;;;;;;;;;;5030314;28;20384;-58
2023/10/16 07:27:48;;;;;;;5.10;2.00;;;;;;;;;;5024086;28;20840;-58
2023/10/16 07:30:23;;;;;;;5.77;2.70;;;;;;;;;;5025466;28;20415;-59
2023/10/16 07:32:49;;;;;;;7.90;2.67;;;;;;;;;;5030505;28;20407;-59
2023/10/16 07:35:18;;;;;;;6.05;2.45;;;;;;;;;;5030618;28;20430;-59
2023/10/16 07:37:53;;;;;;;6.95;2.50;;;;;;;;;;5031395;28;20414;-58
2023/10/16 07:40:20;;;;;;;8.35;3.80;;;;;;;;;;5029970;28;20406;-59
2023/10/16 07:42:46;;;;;;;8.00;3.05;;;;;;;;;;5030918;28;20391;-58
2023/10/16 07:45:11;;;;;;;5.07;2.75;;;;;;;;;;5030597;28;20490;-59
2023/10/16 07:47:37;;;;;;;8.00;3.50;;;;;;;;;;5030318;28;20542;-58
2023/10/16 07:50:04;;;;;;;7.07;2.87;;;;;;;;;;5030486;28;20388;-59
2023/10/16 07:52:30;;;;;;;7.50;2.85;;;;;;;;;;5031066;28;20395;-59
2023/10/16 07:54:55;;;;;;;7.80;2.80;;;;;;;;;;5029986;28;20452;-58
2023/10/16 07:57:23;;;;;;;4.55;2.33;;;;;;;;;;5030162;28;20395;-59
2023/10/16 07:59:54;;;;;;;5.67;2.20;;;;;;;;;;5030806;28;20980;-58
2023/10/16 08:02:19;;;;;;;9.50;2.50;;;;;;;;;;5024668;28;20399;-59
2023/10/16 08:04:44;;;;;;;6.03;2.10;;;;;;;;;;5030642;28;20406;-59
2023/10/16 08:07:18;;;;;;;6.47;2.07;;;;;;;;;;5028955;28;20407;-59
2023/10/16 08:12:19;;;;;;;4.43;1.87;;;;;;;;;;5029850;28;20399;-59
2023/10/16 08:14:44;;;;;;;6.07;1.63;;;;;;;;;;5030027;28;20878;-59
2023/10/16 08:17:17;;;;;;;4.13;1.67;;;;;;;;;;5029104;28;20411;-59
2023/10/16 08:19:42;;;;;;;5.47;1.50;;;;;;;;;;5010764;28;20477;-59
2023/10/16 08:22:08;;;;;;;4.90;1.40;;;;;;;;;;5009354;28;20484;-59
2023/10/16 08:24:34;;;;;;;6.35;1.67;;;;;;;;;;5010848;28;20896;-59
2023/10/16 08:27:16;;;;;;;4.87;1.50;;;;;;;;;;5010479;28;20397;-59
2023/10/16 08:29:51;;;;;;;5.30;1.52;;;;;;;;;;5015436;28;20403;-59
2023/10/16 08:32:53;;;;;;;13.93;4.85;;;;;;;;;;5028468;28;20427;-59
2023/10/16 08:35:10;;;;;;;7.53;2.80;;;;;;;;;;5028832;28;20445;-59
2023/10/16 08:37:40;;;;;;;5.35;1.90;;;;;;;;;;5030298;28;20434;-59
2023/10/16 08:40:23;;;;;;;4.53;1.67;;;;;;;;;;5029971;28;20406;-59
2023/10/16 08:42:51;;;;;;;5.47;1.20;;;;;;;;;;5019533;28;20419;-59
2023/10/16 08:45:23;;;;;;;4.50;1.47;;;;;;;;;;5023291;28;21056;-59
2023/10/16 08:47:49;;;;;;;5.25;1.40;;;;;;;;;;5017141;28;20483;-59
2023/10/16 08:50:24;;;;;;;4.37;1.10;;;;;;;;;;5017415;28;20994;-59
2023/10/16 08:52:50;;;;;;;3.72;1.10;;;;;;;;;;5012311;28;21018;-58
2023/10/16 08:55:16;;;;;;;4.35;1.20;;;;;;;;;;5021054;28;20411;-59
2023/10/16 08:57:41;;;;;;;4.47;1.40;;;;;;;;;;5014407;28;20401;-58
2023/10/16 09:00:11;;;;;;;4.80;1.40;;;;;;;;;;5011554;28;20441;-59
2023/10/16 09:02:37;;;;;;;6.10;1.20;;;;;;;;;;5014971;28;20513;-59
2023/10/16 09:05:08;;;;;;;4.63;1.40;;;;;;;;;;5012431;28;20420;-59
2023/10/16 09:07:34;;;;;;;4.53;1.40;;;;;;;;;;5013974;28;20434;-59
2023/10/16 09:10:02;;;;;;;3.58;1.33;;;;;;;;;;5013242;28;20465;-59
2023/10/16 09:12:27;;;;;;;7.45;3.25;;;;;;;;;;5012113;28;20478;-58
2023/10/16 09:14:52;;;;;;;6.83;3.03;;;;;;;;;;5015025;28;20893;-58
2023/10/16 09:17:19;;;;;;;10.15;4.07;;;;;;;;;;5021077;28;20977;-58
2023/10/16 09:19:46;;;;;;;6.53;1.63;;;;;;;;;;5025649;28;20414;-58
2023/10/16 09:22:13;;;;;;;4.40;1.33;;;;;;;;;;5017743;28;20913;-59
2023/10/16 09:24:40;;;;;;;3.10;1.10;;;;;;;;;;5017204;28;20404;-58
2023/10/16 09:27:13;;;;;;;3.25;1.17;;;;;;;;;;5024842;28;20419;-59
2023/10/16 09:29:38;;;;;;;2.88;1.17;;;;;;;;;;5018675;28;20420;-59
2023/10/16 09:32:06;;;;;;;6.43;1.30;;;;;;;;;;5016541;28;21267;-59
2023/10/16 09:34:33;;;;;;;4.55;1.30;;;;;;;;;;5025225;28;20889;-58
2023/10/16 09:37:15;;;;;;;4.10;0.85;;;;;;;;;;5015539;28;20943;-58
2023/10/16 09:39:40;;;;;;;5.63;1.40;;;;;;;;;;5021445;28;20403;-58
2023/10/16 09:42:11;;;;;;;3.97;0.93;;;;;;;;;;5021487;28;20438;-58
2023/10/16 09:44:38;;;;;;;5.53;1.10;;;;;;;;;;5017127;28;20411;-59
2023/10/16 09:47:25;;;;;;;3.70;1.13;;;;;;;;;;5022594;28;20490;-59
2023/10/16 09:49:49;;;;;;;4.68;1.00;;;;;;;;;;5020531;28;20931;-58
2023/10/16 09:52:17;;;;;;;2.47;0.70;;;;;;;;;;5022819;28;20506;-59
2023/10/16 09:54:43;;;;;;;3.83;0.70;;;;;;;;;;5024207;28;20432;-59
2023/10/16 09:57:08;;;;;;;3.40;0.90;;;;;;;;;;5022959;28;20403;-58
2023/10/16 09:59:34;;;;;;;2.60;1.00;;;;;;;;;;5019385;28;20474;-58
2023/10/16 10:02:05;;;;;;;4.93;0.97;;;;;;;;;;5015196;28;20408;-59
2023/10/16 10:04:32;;;;;;;4.90;0.90;;;;;;;;;;5024480;28;20387;-59
2023/10/16 10:06:57;;;;;;;2.85;0.70;;;;;;;;;;5017220;28;20403;-58
2023/10/16 10:09:32;;;;;;;2.80;0.70;;;;;;;;;;5015039;28;20412;-59
2023/10/16 10:12:13;;;;;;;4.00;0.85;;;;;;;;;;5016430;28;20403;-59
2023/10/16 10:14:48;;;;;;;1.90;0.50;;;;;;;;;;5022540;28;20430;-59
2023/10/16 10:17:19;;;;;;;1.70;0.60;;;;;;;;;;5017479;28;20940;-58
2023/10/16 10:19:46;;;;;;;3.90;0.70;;;;;;;;;;5021860;28;20409;-58
2023/10/16 10:22:17;;;;;;;4.43;0.60;;;;;;;;;;5015190;28;20432;-59
2023/10/16 10:24:45;;;;;;;2.45;0.60;;;;;;;;;;5022526;28;20433;-59
2023/10/16 10:27:11;;;;;;;3.08;0.70;;;;;;;;;;5018963;28;20413;-59
2023/10/16 10:29:37;;;;;;;3.50;0.70;;;;;;;;;;5014487;28;20439;-59
2023/10/16 10:32:05;;;;;;;2.35;0.68;;;;;;;;;;5015915;28;20417;-59
2023/10/16 10:34:31;;;;;;;2.65;0.60;;;;;;;;;;5017761;28;20411;-59
2023/10/16 10:36:58;;;;;;;2.93;0.50;;;;;;;;;;5015673;28;20415;-59
2023/10/16 10:39:25;;;;;;;1.83;0.47;;;;;;;;;;5023209;28;20438;-59
2023/10/16 10:41:54;;;;;;;2.23;0.70;;;;;;;;;;5016277;28;20907;-59
2023/10/16 10:44:20;;;;;;;2.63;0.50;;;;;;;;;;5016494;28;20407;-59
2023/10/16 10:46:53;;;;;;;2.42;0.52;;;;;;;;;;5014287;28;20440;-58
2023/10/16 10:49:26;;;;;;;1.90;0.40;;;;;;;;;;5014349;28;20492;-59
2023/10/16 10:51:53;;;;;;;2.53;0.50;;;;;;;;;;5017373;28;20411;-59
2023/10/16 10:54:22;;;;;;;2.55;0.50;;;;;;;;;;5014108;28;20918;-59
2023/10/16 10:56:48;;;;;;;2.33;0.50;;;;;;;;;;5023110;28;20416;-59
2023/10/16 10:59:33;;;;;;;2.63;0.52;;;;;;;;;;5015865;28;20413;-59
2023/10/16 11:02:09;;;;;;;3.20;0.60;;;;;;;;;;5017493;28;20608;-59
2023/10/16 11:04:34;;;;;;;2.55;0.40;;;;;;;;;;5021452;28;20401;-59
2023/10/16 11:07:11;;;;;;;2.63;0.45;;;;;;;;;;5015791;28;20423;-59
2023/10/16 11:09:37;;;;;;;1.30;0.40;;;;;;;;;;5021567;28;20406;-59
2023/10/16 11:12:02;;;;;;;4.63;0.50;;;;;;;;;;5017495;28;20750;-59
2023/10/16 11:14:37;;;;;;;3.60;0.60;;;;;;;;;;5015412;28;20922;-59
2023/10/16 11:17:05;;;;;;;2.63;0.60;;;;;;;;;;5022239;28;20410;-59
2023/10/16 11:19:43;;;;;;;2.92;0.50;;;;;;;;;;5018814;28;20797;-59
2023/10/16 11:22:09;;;;;;;3.35;0.50;;;;;;;;;;5019570;28;20503;-59
2023/10/16 11:24:36;;;;;;;3.73;0.57;;;;;;;;;;5012754;28;20482;-59
2023/10/16 11:27:01;;;;;;;3.13;0.70;;;;;;;;;;5022648;28;20450;-59
2023/10/16 11:29:33;;;;;;;3.33;0.50;;;;;;;;;;5016971;28;20949;-58
2023/10/16 11:32:06;;;;;;;2.47;0.50;;;;;;;;;;5014356;28;20453;-58
2023/10/16 11:34:40;;;;;;;2.38;0.45;;;;;;;;;;5022639;28;20401;-59
2023/10/16 11:37:07;;;;;;;2.10;0.40;;;;;;;;;;5015553;28;20412;-58
2023/10/16 11:39:33;;;;;;;3.15;0.50;;;;;;;;;;5014966;28;20748;-59
2023/10/16 11:41:58;;;;;;;3.03;0.60;;;;;;;;;;5021945;28;20500;-58
2023/10/16 11:44:32;;;;;;;4.97;0.80;;;;;;;;;;5014219;28;20896;-59
2023/10/16 11:47:00;;;;;;;4.40;0.63;;;;;;;;;;5015417;28;20407;-58
2023/10/16 11:49:35;;;;;;;2.95;0.50;;;;;;;;;;5021672;28;20399;-59
2023/10/16 11:52:08;;;;;;;3.53;0.68;;;;;;;;;;5013299;28;20914;-59
2023/10/16 11:54:34;;;;;;;3.67;0.70;;;;;;;;;;5021531;28;20902;-58
2023/10/16 11:56:59;;;;;;;3.78;0.70;;;;;;;;;;5016881;28;20462;-58
2023/10/16 11:59:25;;;;;;;4.43;0.70;;;;;;;;;;5013230;28;20409;-58
2023/10/16 12:01:59;;;;;;;3.47;0.73;;;;;;;;;;5072365;27;20381;-58
2023/10/16 12:04:26;;;;;;;5.00;0.68;;;;;;;;;;5062373;28;20389;-58
2023/10/16 12:06:51;;;;;;;4.32;0.70;;;;;;;;;;5062823;28;20479;-58
2023/10/16 12:09:23;;;;;;;4.50;0.60;;;;;;;;;;5059978;28;20811;-59
2023/10/16 12:11:49;;;;;;;4.00;0.67;;;;;;;;;;5064220;28;20392;-59
2023/10/16 12:14:14;;;;;;;3.47;0.50;;;;;;;;;;5061094;28;20420;-58
2023/10/16 12:16:41;;;;;;;3.33;0.60;;;;;;;;;;5064462;28;20411;-58
2023/10/16 12:19:06;;;;;;;4.60;0.88;;;;;;;;;;5057484;28;20404;-59
2023/10/16 12:21:32;;;;;;;4.63;0.70;;;;;;;;;;5060717;28;20411;-59
2023/10/16 12:23:57;;;;;;;3.08;0.68;;;;;;;;;;5063899;28;20424;-58
2023/10/16 12:26:22;;;;;;;3.67;0.65;;;;;;;;;;5063490;28;20768;-58
2023/10/16 12:28:48;;;;;;;4.27;0.70;;;;;;;;;;5062469;28;20399;-58
2023/10/16 12:31:13;;;;;;;2.83;0.60;;;;;;;;;;5061907;28;20528;-58
2023/10/16 12:33:38;;;;;;;3.57;0.73;;;;;;;;;;5063939;28;20764;-58
2023/10/16 12:36:07;;;;;;;5.37;0.60;;;;;;;;;;5062619;28;20400;-59
2023/10/16 12:38:33;;;;;;;4.90;0.95;;;;;;;;;;5061433;28;20412;-58
2023/10/16 12:40:59;;;;;;;3.47;0.60;;;;;;;;;;5063596;28;20412;-58
2023/10/16 12:43:27;;;;;;;3.23;0.73;;;;;;;;;;5062503;28;20405;-58
2023/10/16 12:45:53;;;;;;;3.30;0.60;;;;;;;;;;5062255;28;20401;-58
2023/10/16 12:48:18;;;;;;;4.38;0.95;;;;;;;;;;5027980;28;20403;-59
2023/10/16 12:50:47;;;;;;;3.30;0.60;;;;;;;;;;5063658;28;20431;-58
2023/10/16 12:53:12;;;;;;;3.93;0.80;;;;;;;;;;5059438;28;20410;-58
2023/10/16 12:55:37;;;;;;;4.35;0.80;;;;;;;;;;5059987;28;20418;-58
2023/10/16 12:58:05;;;;;;;3.87;0.70;;;;;;;;;;5062990;28;20411;-58
2023/10/16 13:00:30;;;;;;;3.38;0.70;;;;;;;;;;5054531;28;20769;-58
2023/10/16 13:02:58;;;;;;;3.40;0.80;;;;;;;;;;5040786;28;20394;-58
2023/10/16 13:05:25;;;;;;;3.85;0.80;;;;;;;;;;5042084;28;20401;-58
2023/10/16 13:07:50;;;;;;;4.60;1.00;;;;;;;;;;5043332;28;20394;-58
2023/10/16 13:10:26;;;;;;;3.45;0.60;;;;;;;;;;5035570;28;20407;-58
2023/10/16 13:12:51;;;;;;;2.88;0.70;;;;;;;;;;5030405;28;20973;-58
2023/10/16 13:15:24;;;;;;;4.10;0.70;;;;;;;;;;5029145;28;20514;-58
2023/10/16 13:17:49;;;;;;;4.63;0.80;;;;;;;;;;5028784;28;20399;-58
2023/10/16 13:20:18;;;;;;;2.90;0.50;;;;;;;;;;5026956;28;20419;-58
2023/10/16 13:22:49;;;;;;;4.75;0.80;;;;;;;;;;5023886;28;20419;-58
2023/10/16 13:25:14;;;;;;;5.20;0.95;;;;;;;;;;5011997;28;20406;-58
2023/10/16 13:27:40;;;;;;;4.33;0.80;;;;;;;;;;5013160;28;20411;-58
2023/10/16 13:30:06;;;;;;;4.47;0.90;;;;;;;;;;5027152;28;20447;-58
2023/10/16 13:32:31;;;;;;;3.93;0.90;;;;;;;;;;5021713;28;20407;-58
2023/10/16 13:35:00;;;;;;;4.43;1.20;;;;;;;;;;5006907;28;20407;-58
2023/10/16 13:37:25;;;;;;;4.70;1.02;;;;;;;;;;5005332;28;20399;-58
2023/10/16 13:39:52;;;;;;;3.93;0.90;;;;;;;;;;5005505;28;20470;-58
2023/10/16 13:42:20;;;;;;;4.85;0.98;;;;;;;;;;5008100;28;20420;-58
2023/10/16 13:44:46;;;;;;;5.20;0.93;;;;;;;;;;5011241;28;20413;-58
2023/10/16 13:47:13;;;;;;;3.60;0.80;;;;;;;;;;5012011;28;20408;-58
2023/10/16 13:49:38;;;;;;;4.10;0.93;;;;;;;;;;5010729;28;20412;-58
2023/10/16 13:52:07;;;;;;;2.60;0.80;;;;;;;;;;5009047;28;20926;-58
2023/10/16 13:54:34;;;;;;;2.25;0.60;;;;;;;;;;5017968;28;20759;-58
2023/10/16 13:57:01;;;;;;;3.35;0.70;;;;;;;;;;5002437;28;20638;-58
2023/10/16 13:59:26;;;;;;;2.22;0.73;;;;;;;;;;4999523;28;20769;-58
2023/10/16 14:01:52;;;;;;;4.83;0.77;;;;;;;;;;5023586;28;20422;-58
2023/10/16 14:04:17;;;;;;;4.17;0.80;;;;;;;;;;5033616;28;20415;-58
2023/10/16 14:06:44;;;;;;;5.30;0.90;;;;;;;;;;5029441;28;20447;-59
2023/10/16 14:09:11;;;;;;;4.10;0.82;;;;;;;;;;5029136;28;20502;-58
2023/10/16 14:11:47;;;;;;;3.37;1.07;;;;;;;;;;5033205;28;20415;-58
2023/10/16 14:14:15;;;;;;;3.50;0.73;;;;;;;;;;5035894;28;20747;-58
2023/10/16 14:16:41;;;;;;;4.87;0.90;;;;;;;;;;5029996;28;20412;-58
2023/10/16 14:19:12;;;;;;;3.40;0.93;;;;;;;;;;5025626;28;20837;-58
2023/10/16 14:21:40;;;;;;;4.05;0.70;;;;;;;;;;5026893;28;20550;-58
2023/10/16 14:24:06;;;;;;;3.27;0.80;;;;;;;;;;5021766;28;20393;-58
2023/10/16 14:26:34;;;;;;;5.13;1.05;;;;;;;;;;5028508;28;20917;-58
2023/10/16 14:29:00;;;;;;;3.70;0.73;;;;;;;;;;5044301;28;20433;-58
2023/10/16 14:31:28;;;;;;;5.15;0.98;;;;;;;;;;5031293;28;20401;-58
2023/10/16 14:33:53;;;;;;;5.22;0.85;;;;;;;;;;5028799;28;21347;-58
2023/10/16 14:36:18;;;;;;;4.45;1.02;;;;;;;;;;5029801;28;20418;-58
2023/10/16 14:38:44;;;;;;;3.28;0.85;;;;;;;;;;5032681;28;21257;-58
2023/10/16 14:41:13;;;;;;;3.50;0.90;;;;;;;;;;5024870;28;20438;-58
2023/10/16 14:43:39;;;;;;;3.60;0.80;;;;;;;;;;5021848;28;20406;-58
2023/10/16 14:46:07;;;;;;;4.43;0.97;;;;;;;;;;5024797;28;20418;-58
2023/10/16 14:48:33;;;;;;;5.10;0.93;;;;;;;;;;5025318;28;20405;-58
2023/10/16 14:50:59;;;;;;;4.73;0.80;;;;;;;;;;5029570;28;20411;-58
2023/10/16 14:53:25;;;;;;;3.80;1.00;;;;;;;;;;5029611;28;20489;-58
2023/10/16 14:55:50;;;;;;;5.50;0.85;;;;;;;;;;5030762;28;20922;-58
2023/10/16 14:58:16;;;;;;;4.77;0.90;;;;;;;;;;5028817;28;20405;-58
2023/10/16 15:00:44;;;;;;;4.70;0.87;;;;;;;;;;5029155;28;20790;-58
2023/10/16 15:03:10;;;;;;;4.00;0.80;;;;;;;;;;5032545;28;20403;-58
2023/10/16 15:05:39;;;;;;;5.05;1.10;;;;;;;;;;5023141;28;20403;-58
2023/10/16 15:08:05;;;;;;;4.88;0.80;;;;;;;;;;5024781;28;20482;-58
2023/10/16 15:10:30;;;;;;;4.25;0.70;;;;;;;;;;5028904;28;20752;-58
2023/10/16 15:12:55;;;;;;;6.33;1.00;;;;;;;;;;5035637;28;21067;-58
2023/10/16 15:15:21;;;;;;;3.00;0.70;;;;;;;;;;5031401;28;20485;-58
2023/10/16 15:17:46;;;;;;;5.90;1.00;;;;;;;;;;5034031;28;20415;-58
2023/10/16 15:20:18;;;;;;;3.43;0.80;;;;;;;;;;5034955;28;20420;-58
2023/10/16 15:22:44;;;;;;;5.07;0.90;;;;;;;;;;5031684;28;20399;-58
2023/10/16 15:25:11;;;;;;;4.63;0.97;;;;;;;;;;5030715;28;20862;-58
2023/10/16 15:27:36;;;;;;;3.50;0.73;;;;;;;;;;5029692;28;20890;-58
2023/10/16 15:30:02;;;;;;;5.40;0.82;;;;;;;;;;5025079;28;20406;-58
2023/10/16 15:32:28;;;;;;;4.13;1.00;;;;;;;;;;5024820;28;20422;-58
2023/10/16 15:34:53;;;;;;;3.45;0.80;;;;;;;;;;5030310;28;20403;-58
2023/10/16 15:37:18;;;;;;;4.77;0.70;;;;;;;;;;5030512;28;20976;-58
2023/10/16 15:39:44;;;;;;;4.13;0.97;;;;;;;;;;5032032;28;20409;-58
2023/10/16 15:42:09;;;;;;;4.77;1.17;;;;;;;;;;5030474;28;21020;-58
2023/10/16 15:44:34;;;;;;;4.60;1.03;;;;;;;;;;5036162;28;20419;-58
2023/10/16 15:47:01;;;;;;;5.30;1.27;;;;;;;;;;5032708;28;20924;-58
2023/10/16 15:49:26;;;;;;;5.33;1.10;;;;;;;;;;5026378;28;20460;-58
2023/10/16 15:51:52;;;;;;;4.20;1.00;;;;;;;;;;5026996;28;20486;-58
2023/10/16 15:54:18;;;;;;;4.18;0.80;;;;;;;;;;5025746;28;20622;-58
2023/10/16 15:56:43;;;;;;;4.80;1.27;;;;;;;;;;5028631;28;20408;-58
2023/10/16 15:59:08;;;;;;;6.27;1.40;;;;;;;;;;5030741;28;20405;-58
2023/10/16 16:01:34;;;;;;;4.07;1.03;;;;;;;;;;5035334;28;20430;-58